sensor_id;sensor_type;location;lat;lon;timestamp;pressure;altitude;pressure_sealevel;temperature;humidity
30682;BME280;17439;48.092;11.842;2023-04-08T00:00:43;95459.78;;;6.60;57.16
30682;BME280;17439;48.092;11.842;2023-04-08T00:03:09;95460.84;;;6.59;57.26
30682;BME280;17439;48.092;11.842;2023-04-08T00:05:36;95460.06;;;6.59;57.48
30682;BME280;17439;48.092;11.842;2023-04-08T00:08:03;95464.63;;;6.58;58.10
30682;BME280;17439;48.092;11.842;2023-04-08T00:10:29;95468.44;;;6.57;58.42
30682;BME280;17439;48.092;11.842;2023-04-08T00:12:56;95467.03;;;6.60;58.39
30682;BME280;17439;48.092;11.842;2023-04-08T00:15:23;95476.44;;;6.62;58.58
30682;BME280;17439;48.092;11.842;2023-04-08T00:17:49;95478.84;;;6.64;58.53
30682;BME280;17439;48.092;11.842;2023-04-08T00:20:16;95482.84;;;6.66;58.42
30682;BME280;17439;48.092;11.842;2023-04-08T00:22:43;95481.50;;;6.69;58.51
30682;BME280;17439;48.092;11.842;2023-04-08T00:25:09;95481.22;;;6.70;58.40
30682;BME280;17439;48.092;11.842;2023-04-08T00:27:36;95473.91;;;6.71;58.52
30682;BME280;17439;48.092;11.842;2023-04-08T00:30:03;95475.53;;;6.72;58.51
30682;BME280;17439;48.092;11.842;2023-04-08T00:32:30;95474.75;;;6.71;58.33
30682;BME280;17439;48.092;11.842;2023-04-08T00:34:56;95472.84;;;6.72;58.19
30682;BME280;17439;48.092;11.842;2023-04-08T00:37:23;95483.91;;;6.70;58.24
30682;BME280;17439;48.092;11.842;2023-04-08T00:39:50;95472.34;;;6.70;58.32
30682;BME280;17439;48.092;11.842;2023-04-08T00:42:17;95473.69;;;6.67;58.20
30682;BME280;17439;48.092;11.842;2023-04-08T00:44:43;95484.47;;;6.67;58.53
30682;BME280;17439;48.092;11.842;2023-04-08T00:47:13;95476.97;;;6.64;59.29
30682;BME280;17439;48.092;11.842;2023-04-08T00:49:41;95471.84;;;6.63;58.81
30682;BME280;17439;48.092;11.842;2023-04-08T00:52:07;95476.72;;;6.61;59.22
30682;BME280;17439;48.092;11.842;2023-04-08T00:54:35;95479.44;;;6.61;59.31
30682;BME280;17439;48.092;11.842;2023-04-08T00:57:03;95481.06;;;6.57;59.80
30682;BME280;17439;48.092;11.842;2023-04-08T00:59:31;95482.69;;;6.58;59.58
30682;BME280;17439;48.092;11.842;2023-04-08T01:07:22;95483.81;;;6.51;61.75
30682;BME280;17439;48.092;11.842;2023-04-08T01:09:51;95476.88;;;6.45;61.22
30682;BME280;17439;48.092;11.842;2023-04-08T01:12:25;95477.38;;;6.47;61.79
30682;BME280;17439;48.092;11.842;2023-04-08T01:14:58;95475.78;;;6.46;60.75
30682;BME280;17439;48.092;11.842;2023-04-08T01:17:26;95476.88;;;6.45;60.88
30682;BME280;17439;48.092;11.842;2023-04-08T01:19:53;95481.75;;;6.43;60.85
30682;BME280;17439;48.092;11.842;2023-04-08T01:25:04;95478.53;;;6.41;61.57
30682;BME280;17439;48.092;11.842;2023-04-08T01:27:31;95482.59;;;6.39;61.21
30682;BME280;17439;48.092;11.842;2023-04-08T01:30:01;95487.19;;;6.38;61.66
30682;BME280;17439;48.092;11.842;2023-04-08T01:32:30;95479.91;;;6.39;61.07
30682;BME280;17439;48.092;11.842;2023-04-08T01:34:57;95485.56;;;6.37;61.28
30682;BME280;17439;48.092;11.842;2023-04-08T01:37:28;95477.50;;;6.37;61.12
30682;BME280;17439;48.092;11.842;2023-04-08T01:39:56;95482.06;;;6.37;61.41
30682;BME280;17439;48.092;11.842;2023-04-08T01:42:25;95482.88;;;6.37;61.82
30682;BME280;17439;48.092;11.842;2023-04-08T01:44:55;95490.44;;;6.35;61.63
30682;BME280;17439;48.092;11.842;2023-04-08T01:47:23;95481.25;;;6.36;61.25
30682;BME280;17439;48.092;11.842;2023-04-08T01:49:51;95479.66;;;6.35;61.36
30682;BME280;17439;48.092;11.842;2023-04-08T01:52:19;95486.13;;;6.34;61.68
30682;BME280;17439;48.092;11.842;2023-04-08T01:54:47;95480.75;;;6.34;61.70
30682;BME280;17439;48.092;11.842;2023-04-08T01:57:20;95484.50;;;6.33;63.12
30682;BME280;17439;48.092;11.842;2023-04-08T01:59:55;95486.91;;;6.34;63.33
30682;BME280;17439;48.092;11.842;2023-04-08T02:02:26;95486.63;;;6.36;61.63
30682;BME280;17439;48.092;11.842;2023-04-08T02:04:53;95486.91;;;6.34;61.77
30682;BME280;17439;48.092;11.842;2023-04-08T02:07:21;95480.75;;;6.34;62.41
30682;BME280;17439;48.092;11.842;2023-04-08T02:09:49;95485.84;;;6.35;62.48
30682;BME280;17439;48.092;11.842;2023-04-08T02:12:16;95486.97;;;6.29;65.04
30682;BME280;17439;48.092;11.842;2023-04-08T02:14:42;95484.78;;;6.37;62.54
30682;BME280;17439;48.092;11.842;2023-04-08T02:17:18;95487.97;;;6.39;64.18
30682;BME280;17439;48.092;11.842;2023-04-08T02:20:09;95487.69;;;6.40;64.32
30682;BME280;17439;48.092;11.842;2023-04-08T02:22:42;95486.63;;;6.41;63.35
30682;BME280;17439;48.092;11.842;2023-04-08T02:25:14;95486.06;;;6.44;63.72
30682;BME280;17439;48.092;11.842;2023-04-08T02:27:43;95487.06;;;6.48;62.76
30682;BME280;17439;48.092;11.842;2023-04-08T02:30:12;95481.69;;;6.48;62.96
30682;BME280;17439;48.092;11.842;2023-04-08T02:32:40;95489.72;;;6.53;62.86
30682;BME280;17439;48.092;11.842;2023-04-08T02:35:07;95486.00;;;6.49;65.17
30682;BME280;17439;48.092;11.842;2023-04-08T02:37:35;95489.97;;;6.57;62.63
30682;BME280;17439;48.092;11.842;2023-04-08T02:40:02;95481.03;;;6.62;62.66
30682;BME280;17439;48.092;11.842;2023-04-08T02:42:29;95482.34;;;6.64;62.72
30682;BME280;17439;48.092;11.842;2023-04-08T02:44:56;95480.69;;;6.68;62.81
30682;BME280;17439;48.092;11.842;2023-04-08T02:47:23;95478.78;;;6.69;62.85
30682;BME280;17439;48.092;11.842;2023-04-08T02:49:50;95472.84;;;6.72;62.89
30682;BME280;17439;48.092;11.842;2023-04-08T02:52:17;95479.28;;;6.76;63.04
30682;BME280;17439;48.092;11.842;2023-04-08T02:54:44;95484.38;;;6.78;62.86
30682;BME280;17439;48.092;11.842;2023-04-08T02:57:11;95477.59;;;6.80;62.48
30682;BME280;17439;48.092;11.842;2023-04-08T02:59:37;95473.53;;;6.83;62.74
30682;BME280;17439;48.092;11.842;2023-04-08T03:02:04;95478.66;;;6.84;62.61
30682;BME280;17439;48.092;11.842;2023-04-08T03:04:31;95478.66;;;6.84;62.99
30682;BME280;17439;48.092;11.842;2023-04-08T03:06:57;95482.66;;;6.87;63.06
30682;BME280;17439;48.092;11.842;2023-04-08T03:09:24;95479.16;;;6.86;63.06
30682;BME280;17439;48.092;11.842;2023-04-08T03:11:51;95474.81;;;6.90;62.73
30682;BME280;17439;48.092;11.842;2023-04-08T03:14:17;95475.31;;;6.93;63.00
30682;BME280;17439;48.092;11.842;2023-04-08T03:16:44;95479.63;;;6.94;62.54
30682;BME280;17439;48.092;11.842;2023-04-08T03:19:10;95485.53;;;6.96;62.70
30682;BME280;17439;48.092;11.842;2023-04-08T03:21:37;95494.41;;;6.96;62.78
30682;BME280;17439;48.092;11.842;2023-04-08T03:24:04;95492.50;;;6.97;62.94
30682;BME280;17439;48.092;11.842;2023-04-08T03:26:31;95487.13;;;6.97;63.03
30682;BME280;17439;48.092;11.842;2023-04-08T03:28:57;95496.53;;;6.99;63.00
30682;BME280;17439;48.092;11.842;2023-04-08T03:31:24;95488.66;;;7.03;62.53
30682;BME280;17439;48.092;11.842;2023-04-08T03:33:51;95493.28;;;7.02;62.80
30682;BME280;17439;48.092;11.842;2023-04-08T03:36:18;95493.28;;;7.02;62.88
30682;BME280;17439;48.092;11.842;2023-04-08T03:38:44;95501.34;;;7.02;62.80
30682;BME280;17439;48.092;11.842;2023-04-08T03:41:11;95504.56;;;7.04;62.61
30682;BME280;17439;48.092;11.842;2023-04-08T03:43:38;95504.28;;;7.06;62.26
30682;BME280;17439;48.092;11.842;2023-04-08T03:46:04;95502.41;;;7.06;62.17
30682;BME280;17439;48.092;11.842;2023-04-08T03:48:31;95498.59;;;7.07;62.32
30682;BME280;17439;48.092;11.842;2023-04-08T03:50:58;95498.59;;;7.07;62.12
30682;BME280;17439;48.092;11.842;2023-04-08T03:53:24;95502.13;;;7.08;62.10
30682;BME280;17439;48.092;11.842;2023-04-08T03:55:51;95504.28;;;7.06;62.10
30682;BME280;17439;48.092;11.842;2023-04-08T03:58:18;95508.06;;;7.05;61.82
30682;BME280;17439;48.092;11.842;2023-04-08T04:00:44;95510.78;;;7.05;61.83
30682;BME280;17439;48.092;11.842;2023-04-08T04:03:11;95514.53;;;7.04;61.83
30682;BME280;17439;48.092;11.842;2023-04-08T04:05:38;95515.63;;;7.03;61.96
30682;BME280;17439;48.092;11.842;2023-04-08T04:08:06;95518.31;;;7.03;61.81
30682;BME280;17439;48.092;11.842;2023-04-08T04:10:32;95522.91;;;7.02;61.97
30682;BME280;17439;48.092;11.842;2023-04-08T04:12:59;95522.13;;;7.02;61.90
30682;BME280;17439;48.092;11.842;2023-04-08T04:15:26;95524.81;;;7.02;62.04
30682;BME280;17439;48.092;11.842;2023-04-08T04:17:52;95525.63;;;7.02;61.99
30682;BME280;17439;48.092;11.842;2023-04-08T04:20:19;95524.53;;;7.03;62.04
30682;BME280;17439;48.092;11.842;2023-04-08T04:22:46;95529.09;;;7.03;62.52
30682;BME280;17439;48.092;11.842;2023-04-08T04:25:12;95531.50;;;7.04;62.41
30682;BME280;17439;48.092;11.842;2023-04-08T04:27:39;95526.13;;;7.04;62.42
30682;BME280;17439;48.092;11.842;2023-04-08T04:30:06;95527.47;;;7.07;62.46
30682;BME280;17439;48.092;11.842;2023-04-08T04:32:33;95531.47;;;7.10;62.46
30682;BME280;17439;48.092;11.842;2023-04-08T04:35:00;95533.59;;;7.13;62.38
30682;BME280;17439;48.092;11.842;2023-04-08T04:37:26;95537.59;;;7.15;62.67
30682;BME280;17439;48.092;11.842;2023-04-08T04:39:53;95533.53;;;7.18;62.81
30682;BME280;17439;48.092;11.842;2023-04-08T04:42:20;95536.47;;;7.21;62.68
30682;BME280;17439;48.092;11.842;2023-04-08T04:44:46;95542.91;;;7.25;62.73
30682;BME280;17439;48.092;11.842;2023-04-08T04:47:13;95536.13;;;7.28;62.64
30682;BME280;17439;48.092;11.842;2023-04-08T04:49:39;95541.72;;;7.32;62.66
30682;BME280;17439;48.092;11.842;2023-04-08T04:52:06;95545.47;;;7.36;62.66
30682;BME280;17439;48.092;11.842;2023-04-08T04:54:33;95549.50;;;7.38;62.61
30682;BME280;17439;48.092;11.842;2023-04-08T04:56:59;95545.41;;;7.41;62.84
30682;BME280;17439;48.092;11.842;2023-04-08T04:59:26;95544.03;;;7.43;62.95
30682;BME280;17439;48.092;11.842;2023-04-08T05:01:53;95542.66;;;7.46;62.80
30682;BME280;17439;48.092;11.842;2023-04-08T05:04:20;95549.34;;;7.49;62.79
30682;BME280;17439;48.092;11.842;2023-04-08T05:06:46;95548.50;;;7.53;62.85
30682;BME280;17439;48.092;11.842;2023-04-08T05:09:13;95548.50;;;7.53;62.91
30682;BME280;17439;48.092;11.842;2023-04-08T05:11:40;95547.91;;;7.56;62.78
30682;BME280;17439;48.092;11.842;2023-04-08T05:14:06;95557.06;;;7.60;62.90
30682;BME280;17439;48.092;11.842;2023-04-08T05:16:33;95557.28;;;7.64;62.69
30682;BME280;17439;48.092;11.842;2023-04-08T05:19:00;95546.97;;;7.66;62.87
30682;BME280;17439;48.092;11.842;2023-04-08T05:21:29;95549.41;;;7.68;63.04
30682;BME280;17439;48.092;11.842;2023-04-08T05:23:56;95542.34;;;7.72;62.55
30682;BME280;17439;48.092;11.842;2023-04-08T05:26:23;95555.25;;;7.75;62.76
30682;BME280;17439;48.092;11.842;2023-04-08T05:28:50;95545.75;;;7.77;62.87
30682;BME280;17439;48.092;11.842;2023-04-08T05:31:18;95549.28;;;7.78;62.71
30682;BME280;17439;48.092;11.842;2023-04-08T05:33:45;95548.69;;;7.81;62.87
30682;BME280;17439;48.092;11.842;2023-04-08T05:36:12;95548.38;;;7.82;62.90
30682;BME280;17439;48.092;11.842;2023-04-08T05:38:40;95554.31;;;7.85;62.79
30682;BME280;17439;48.092;11.842;2023-04-08T05:41:07;95553.72;;;7.88;62.71
30682;BME280;17439;48.092;11.842;2023-04-08T05:43:34;95544.53;;;7.89;62.67
30682;BME280;17439;48.092;11.842;2023-04-08T05:46:07;95544.22;;;7.90;63.71
30682;BME280;17439;48.092;11.842;2023-04-08T05:48:35;95557.16;;;7.93;62.86
30682;BME280;17439;48.092;11.842;2023-04-08T05:51:01;95549.88;;;7.94;63.03
30682;BME280;17439;48.092;11.842;2023-04-08T05:53:28;95551.66;;;7.98;62.95
30682;BME280;17439;48.092;11.842;2023-04-08T05:55:55;95549.22;;;8.02;62.96
30682;BME280;17439;48.092;11.842;2023-04-08T05:58:21;95548.63;;;8.05;62.95
30682;BME280;17439;48.092;11.842;2023-04-08T06:00:48;95559.66;;;8.09;62.99
30682;BME280;17439;48.092;11.842;2023-04-08T06:03:15;95567.44;;;8.10;63.23
30682;BME280;17439;48.092;11.842;2023-04-08T06:05:45;95559.28;;;8.15;63.03
30682;BME280;17439;48.092;11.842;2023-04-08T06:08:12;95559.78;;;8.17;63.12
30682;BME280;17439;48.092;11.842;2023-04-08T06:10:39;95563.78;;;8.20;63.15
30682;BME280;17439;48.092;11.842;2023-04-08T06:13:06;95572.94;;;8.24;63.24
30682;BME280;17439;48.092;11.842;2023-04-08T06:15:33;95573.44;;;8.26;63.43
30682;BME280;17439;48.092;11.842;2023-04-08T06:17:59;95565.25;;;8.31;63.06
30682;BME280;17439;48.092;11.842;2023-04-08T06:20:26;95571.69;;;8.35;63.10
30682;BME280;17439;48.092;11.842;2023-04-08T06:22:53;95573.81;;;8.39;63.13
30682;BME280;17439;48.092;11.842;2023-04-08T06:25:19;95571.09;;;8.39;63.41
30682;BME280;17439;48.092;11.842;2023-04-08T06:27:46;95582.91;;;8.43;63.41
30682;BME280;17439;48.092;11.842;2023-04-08T06:30:12;95582.34;;;8.46;63.33
30682;BME280;17439;48.092;11.842;2023-04-08T06:32:39;95577.47;;;8.48;63.14
30682;BME280;17439;48.092;11.842;2023-04-08T06:35:06;95576.84;;;8.51;63.02
30682;BME280;17439;48.092;11.842;2023-04-08T06:37:33;95581.47;;;8.50;63.42
30682;BME280;17439;48.092;11.842;2023-04-08T06:39:59;95586.28;;;8.53;63.16
30682;BME280;17439;48.092;11.842;2023-04-08T06:42:26;95586.50;;;8.57;63.10
30682;BME280;17439;48.092;11.842;2023-04-08T06:45:05;95584.63;;;8.58;63.36
30682;BME280;17439;48.092;11.842;2023-04-08T06:47:32;95590.31;;;8.56;63.78
30682;BME280;17439;48.092;11.842;2023-04-08T06:49:59;95592.13;;;8.61;63.53
30682;BME280;17439;48.092;11.842;2023-04-08T06:52:25;95590.94;;;8.67;63.52
30682;BME280;17439;48.092;11.842;2023-04-08T06:54:52;95591.16;;;8.70;63.67
30682;BME280;17439;48.092;11.842;2023-04-08T06:57:18;95598.09;;;8.77;63.67
30682;BME280;17439;48.092;11.842;2023-04-08T06:59:45;95593.69;;;8.81;63.76
30682;BME280;17439;48.092;11.842;2023-04-08T07:02:12;95599.00;;;8.86;63.40
30682;BME280;17439;48.092;11.842;2023-04-08T07:04:38;95594.63;;;8.90;63.64
30682;BME280;17439;48.092;11.842;2023-04-08T07:07:05;95592.06;;;8.99;63.57
30682;BME280;17439;48.092;11.842;2023-04-08T07:09:32;95588.44;;;9.03;63.46
30682;BME280;17439;48.092;11.842;2023-04-08T07:11:58;95593.09;;;9.17;62.77
30682;BME280;17439;48.092;11.842;2023-04-08T07:14:25;95593.09;;;9.17;62.94
30682;BME280;17439;48.092;11.842;2023-04-08T07:16:52;95592.50;;;9.20;62.89
30682;BME280;17439;48.092;11.842;2023-04-08T07:19:18;95601.81;;;9.28;62.92
30682;BME280;17439;48.092;11.842;2023-04-08T07:21:45;95604.44;;;9.33;62.77
30682;BME280;17439;48.092;11.842;2023-04-08T07:24:11;95604.94;;;9.35;62.67
30682;BME280;17439;48.092;11.842;2023-04-08T07:26:38;95599.72;;;9.38;62.71
30682;BME280;17439;48.092;11.842;2023-04-08T07:29:05;95606.34;;;9.46;62.27
30682;BME280;17439;48.092;11.842;2023-04-08T07:31:31;95605.44;;;9.51;62.01
30682;BME280;17439;48.092;11.842;2023-04-08T07:33:58;95608.16;;;9.51;61.66
30682;BME280;17439;48.092;11.842;2023-04-08T07:36:25;95622.69;;;9.55;60.96
30682;BME280;17439;48.092;11.842;2023-04-08T07:38:52;95603.25;;;9.67;59.76
30682;BME280;17439;48.092;11.842;2023-04-08T07:41:18;95614.38;;;9.65;59.48
30682;BME280;17439;48.092;11.842;2023-04-08T07:43:45;95619.88;;;9.60;59.49
30682;BME280;17439;48.092;11.842;2023-04-08T07:46:12;95620.47;;;9.57;57.57
30682;BME280;17439;48.092;11.842;2023-04-08T07:48:39;95623.91;;;9.49;58.00
30682;BME280;17439;48.092;11.842;2023-04-08T07:51:07;95615.47;;;9.50;55.91
30682;BME280;17439;48.092;11.842;2023-04-08T07:53:38;95627.38;;;9.49;55.25
30682;BME280;17439;48.092;11.842;2023-04-08T07:56:12;95631.38;;;9.38;55.37
30682;BME280;17439;48.092;11.842;2023-04-08T07:58:39;95634.28;;;9.28;55.13
30682;BME280;17439;48.092;11.842;2023-04-08T08:01:19;95632.13;;;9.11;55.37
30682;BME280;17439;48.092;11.842;2023-04-08T08:03:48;95630.88;;;8.89;56.09
30682;BME280;17439;48.092;11.842;2023-04-08T08:06:15;95635.72;;;8.73;56.80
30682;BME280;17439;48.092;11.842;2023-04-08T08:08:42;95624.56;;;8.61;57.44
30682;BME280;17439;48.092;11.842;2023-04-08T08:11:08;95628.44;;;8.55;58.06
30682;BME280;17439;48.092;11.842;2023-04-08T08:13:35;95636.91;;;8.48;58.42
30682;BME280;17439;48.092;11.842;2023-04-08T08:16:03;95640.72;;;8.47;58.56
30682;BME280;17439;48.092;11.842;2023-04-08T08:18:30;95636.94;;;8.43;58.98
30682;BME280;17439;48.092;11.842;2023-04-08T08:20:56;95642.31;;;8.48;58.66
30682;BME280;17439;48.092;11.842;2023-04-08T08:23:23;95636.91;;;8.48;58.38
30682;BME280;17439;48.092;11.842;2023-04-08T08:25:58;95644.50;;;8.46;58.38
30682;BME280;17439;48.092;11.842;2023-04-08T08:28:25;95633.22;;;8.39;58.54
30682;BME280;17439;48.092;11.842;2023-04-08T08:30:52;95641.38;;;8.33;58.96
30682;BME280;17439;48.092;11.842;2023-04-08T08:33:19;95644.75;;;8.25;59.21
30682;BME280;17439;48.092;11.842;2023-04-08T08:35:45;95643.75;;;8.21;59.48
30682;BME280;17439;48.092;11.842;2023-04-08T08:38:12;95644.91;;;8.15;59.61
30682;BME280;17439;48.092;11.842;2023-04-08T08:40:39;95654.66;;;8.11;59.86
30682;BME280;17439;48.092;11.842;2023-04-08T08:43:05;95651.44;;;8.09;60.29
30682;BME280;17439;48.092;11.842;2023-04-08T08:45:32;95644.22;;;8.04;60.52
30682;BME280;17439;48.092;11.842;2023-04-08T08:47:59;95653.41;;;8.03;60.37
30682;BME280;17439;48.092;11.842;2023-04-08T08:50:26;95652.81;;;8.06;60.03
30682;BME280;17439;48.092;11.842;2023-04-08T08:52:53;95653.13;;;8.05;59.99
30682;BME280;17439;48.092;11.842;2023-04-08T08:55:20;95661.28;;;7.99;60.55
30682;BME280;17439;48.092;11.842;2023-04-08T08:58:07;95657.28;;;7.97;61.61
30682;BME280;17439;48.092;11.842;2023-04-08T09:00:35;95656.84;;;8.09;60.98
30682;BME280;17439;48.092;11.842;2023-04-08T09:03:21;95657.28;;;8.16;60.67
30682;BME280;17439;48.092;11.842;2023-04-08T09:05:56;95653.50;;;8.17;60.72
30682;BME280;17439;48.092;11.842;2023-04-08T09:08:34;95650.81;;;8.17;60.04
30682;BME280;17439;48.092;11.842;2023-04-08T09:11:16;95668.69;;;8.13;60.16
30682;BME280;17439;48.092;11.842;2023-04-08T09:13:45;95667.06;;;8.12;61.04
30682;BME280;17439;48.092;11.842;2023-04-08T09:16:16;95674.03;;;8.18;60.62
30682;BME280;17439;48.092;11.842;2023-04-08T09:18:44;95671.75;;;8.25;60.24
30682;BME280;17439;48.092;11.842;2023-04-08T09:21:12;95672.59;;;8.26;60.83
30682;BME280;17439;48.092;11.842;2023-04-08T09:23:46;95667.81;;;8.36;60.56
30682;BME280;17439;48.092;11.842;2023-04-08T09:26:18;95668.06;;;8.40;60.64
30682;BME280;17439;48.092;11.842;2023-04-08T09:29:00;95674.13;;;8.32;60.96
30682;BME280;17439;48.092;11.842;2023-04-08T09:31:44;95674.75;;;8.24;61.45
30682;BME280;17439;48.092;11.842;2023-04-08T09:34:12;95672.34;;;8.22;61.66
30682;BME280;17439;48.092;11.842;2023-04-08T09:36:39;95667.50;;;8.19;62.01
30682;BME280;17439;48.092;11.842;2023-04-08T09:39:06;95665.38;;;8.16;62.03
30682;BME280;17439;48.092;11.842;2023-04-08T09:41:34;95665.47;;;8.11;62.08
30682;BME280;17439;48.092;11.842;2023-04-08T09:44:06;95672.56;;;8.07;61.71
30682;BME280;17439;48.092;11.842;2023-04-08T09:49:30;95678.47;;;8.09;62.01
30682;BME280;17439;48.092;11.842;2023-04-08T09:55:03;95672.75;;;8.10;61.44
30682;BME280;17439;48.092;11.842;2023-04-08T09:57:38;95682.19;;;8.13;61.13
30682;BME280;17439;48.092;11.842;2023-04-08T10:00:11;95675.09;;;8.17;61.42
30682;BME280;17439;48.092;11.842;2023-04-08T10:03:01;95675.03;;;8.22;61.13
30682;BME280;17439;48.092;11.842;2023-04-08T10:05:36;95672.34;;;8.22;60.44
30682;BME280;17439;48.092;11.842;2023-04-08T10:08:04;95678.19;;;8.29;61.26
30682;BME280;17439;48.092;11.842;2023-04-08T10:10:33;95677.84;;;8.36;61.38
30682;BME280;17439;48.092;11.842;2023-04-08T10:13:00;95669.94;;;8.45;61.99
30682;BME280;17439;48.092;11.842;2023-04-08T10:15:32;95678.16;;;8.53;61.61
30682;BME280;17439;48.092;11.842;2023-04-08T10:25:38;95671.97;;;9.05;60.37
30682;BME280;17439;48.092;11.842;2023-04-08T10:30:50;95667.25;;;9.30;59.59
30682;BME280;17439;48.092;11.842;2023-04-08T10:33:24;95653.81;;;9.38;58.73
30682;BME280;17439;48.092;11.842;2023-04-08T10:38:33;95664.06;;;9.41;57.69
30682;BME280;17439;48.092;11.842;2023-04-08T10:41:00;95655.94;;;9.41;57.32
30682;BME280;17439;48.092;11.842;2023-04-08T10:43:31;95659.16;;;9.43;57.25
30682;BME280;17439;48.092;11.842;2023-04-08T10:45:58;95656.47;;;9.43;57.80
30682;BME280;17439;48.092;11.842;2023-04-08T10:48:25;95666.28;;;9.39;57.67
30682;BME280;17439;48.092;11.842;2023-04-08T10:50:59;95656.03;;;9.36;57.55
30682;BME280;17439;48.092;11.842;2023-04-08T10:53:34;95665.34;;;9.30;56.55
30682;BME280;17439;48.092;11.842;2023-04-08T10:56:04;95663.22;;;9.27;56.68
30682;BME280;17439;48.092;11.842;2023-04-08T10:58:32;95664.06;;;9.28;57.65
30682;BME280;17439;48.092;11.842;2023-04-08T11:01:05;95666.81;;;9.22;57.39
30682;BME280;17439;48.092;11.842;2023-04-08T11:03:34;95668.22;;;9.20;57.98
30682;BME280;17439;48.092;11.842;2023-04-08T11:06:02;95669.13;;;9.15;58.04
30682;BME280;17439;48.092;11.842;2023-04-08T11:08:33;95672.75;;;9.24;57.05
30682;BME280;17439;48.092;11.842;2023-04-08T11:11:00;95669.03;;;9.20;57.28
30682;BME280;17439;48.092;11.842;2023-04-08T11:13:27;95679.16;;;9.15;57.50
30682;BME280;17439;48.092;11.842;2023-04-08T11:15:55;95672.13;;;9.14;56.82
30682;BME280;17439;48.092;11.842;2023-04-08T11:18:22;95678.25;;;9.00;57.41
30682;BME280;17439;48.092;11.842;2023-04-08T11:20:51;95683.69;;;9.00;58.17
30682;BME280;17439;48.092;11.842;2023-04-08T11:23:18;95683.38;;;9.02;58.55
30682;BME280;17439;48.092;11.842;2023-04-08T11:25:45;95680.47;;;8.98;58.85
30682;BME280;17439;48.092;11.842;2023-04-08T11:28:13;95693.31;;;9.06;58.89
30682;BME280;17439;48.092;11.842;2023-04-08T11:30:40;95687.63;;;9.08;58.87
30682;BME280;17439;48.092;11.842;2023-04-08T11:33:07;95684.13;;;9.07;59.08
30682;BME280;17439;48.092;11.842;2023-04-08T11:35:38;95698.81;;;9.01;59.51
30682;BME280;17439;48.092;11.842;2023-04-08T11:38:05;95681.84;;;9.15;59.39
30682;BME280;17439;48.092;11.842;2023-04-08T11:40:33;95682.66;;;9.15;59.50
30682;BME280;17439;48.092;11.842;2023-04-08T11:43:08;95691.47;;;9.21;59.08
30682;BME280;17439;48.092;11.842;2023-04-08T11:45:38;95681.22;;;9.18;58.85
30682;BME280;17439;48.092;11.842;2023-04-08T11:48:13;95681.63;;;9.11;59.36
30682;BME280;17439;48.092;11.842;2023-04-08T11:50:40;95685.78;;;9.03;59.75
30682;BME280;17439;48.092;11.842;2023-04-08T11:53:20;95678.94;;;8.92;59.41
30682;BME280;17439;48.092;11.842;2023-04-08T11:55:47;95690.88;;;8.91;59.44
30682;BME280;17439;48.092;11.842;2023-04-08T11:58:14;95684.00;;;8.99;59.48
30682;BME280;17439;48.092;11.842;2023-04-08T12:00:41;95692.03;;;9.04;58.43
30682;BME280;17439;48.092;11.842;2023-04-08T12:03:08;95685.38;;;8.96;58.66
30682;BME280;17439;48.092;11.842;2023-04-08T12:05:35;95699.47;;;8.93;58.84
30682;BME280;17439;48.092;11.842;2023-04-08T12:08:02;95698.44;;;8.89;59.06
30682;BME280;17439;48.092;11.842;2023-04-08T12:10:29;95698.16;;;8.90;58.97
30682;BME280;17439;48.092;11.842;2023-04-08T12:12:55;95697.94;;;8.87;58.86
30682;BME280;17439;48.092;11.842;2023-04-08T12:15:22;95701.75;;;8.86;58.46
30682;BME280;17439;48.092;11.842;2023-04-08T12:17:49;95702.78;;;8.90;57.87
30682;BME280;17439;48.092;11.842;2023-04-08T12:20:15;95710.38;;;8.88;57.87
30682;BME280;17439;48.092;11.842;2023-04-08T12:22:42;95703.34;;;8.87;57.95
30682;BME280;17439;48.092;11.842;2023-04-08T12:25:09;95704.81;;;8.79;57.96
30682;BME280;17439;48.092;11.842;2023-04-08T12:27:36;95700.28;;;8.75;58.14
30682;BME280;17439;48.092;11.842;2023-04-08T12:30:03;95713.22;;;8.78;57.71
30682;BME280;17439;48.092;11.842;2023-04-08T12:32:30;95703.16;;;8.83;57.47
30682;BME280;17439;48.092;11.842;2023-04-08T12:34:57;95709.94;;;8.81;57.43
30682;BME280;17439;48.092;11.842;2023-04-08T12:37:23;95716.47;;;8.80;57.27
30682;BME280;17439;48.092;11.842;2023-04-08T12:39:50;95708.78;;;8.68;57.88
30682;BME280;17439;48.092;11.842;2023-04-08T12:42:16;95713.75;;;8.61;57.55
30682;BME280;17439;48.092;11.842;2023-04-08T12:44:43;95717.91;;;8.53;58.03
30682;BME280;17439;48.092;11.842;2023-04-08T12:47:10;95717.97;;;8.48;57.99
30682;BME280;17439;48.092;11.842;2023-04-08T12:49:36;95719.41;;;8.40;58.19
30682;BME280;17439;48.092;11.842;2023-04-08T12:52:06;95716.97;;;8.39;58.53
30682;BME280;17439;48.092;11.842;2023-04-08T12:54:33;95717.34;;;8.32;58.56
30682;BME280;17439;48.092;11.842;2023-04-08T12:56:59;95720.38;;;8.25;58.80
30682;BME280;17439;48.092;11.842;2023-04-08T12:59:26;95720.94;;;8.22;59.20
30682;BME280;17439;48.092;11.842;2023-04-08T13:01:52;95718.81;;;8.19;59.30
30682;BME280;17439;48.092;11.842;2023-04-08T13:04:19;95713.19;;;8.15;59.49
30682;BME280;17439;48.092;11.842;2023-04-08T13:06:46;95728.09;;;8.13;59.75
30682;BME280;17439;48.092;11.842;2023-04-08T13:09:12;95731.31;;;8.15;59.66
30682;BME280;17439;48.092;11.842;2023-04-08T13:11:39;95724.59;;;8.12;59.76
30682;BME280;17439;48.092;11.842;2023-04-08T13:14:06;95725.44;;;8.08;59.82
30682;BME280;17439;48.092;11.842;2023-04-08T13:16:32;95726.31;;;8.03;60.07
30682;BME280;17439;48.092;11.842;2023-04-08T13:18:59;95727.41;;;8.02;60.30
30682;BME280;17439;48.092;11.842;2023-04-08T13:21:26;95730.84;;;8.08;60.37
30682;BME280;17439;48.092;11.842;2023-04-08T13:23:53;95725.44;;;8.08;60.37
30682;BME280;17439;48.092;11.842;2023-04-08T13:26:19;95730.41;;;8.01;60.46
30682;BME280;17439;48.092;11.842;2023-04-08T13:28:46;95738.56;;;7.95;60.68
30682;BME280;17439;48.092;11.842;2023-04-08T13:31:23;95740.50;;;7.90;60.76